sensor_id;sensor_type;location;lat;lon;timestamp;pressure;altitude;pressure_sealevel;temperature;humidity
5703;BME280;2876;51.738;10.050;2022-11-15T00:02:14;98883.63;;;8.73;100.00
5703;BME280;2876;51.738;10.050;2022-11-15T00:08:17;98886.91;;;8.75;99.48
5703;BME280;2876;51.738;10.050;2022-11-15T00:14:19;98892.53;;;8.87;99.05
5703;BME280;2876;51.738;10.050;2022-11-15T00:20:21;98890.09;;;8.57;100.00
5703;BME280;2876;51.738;10.050;2022-11-15T00:26:23;98903.69;;;8.62;100.00
5703;BME280;2876;51.738;10.050;2022-11-15T00:32:24;98897.97;;;8.66;100.00
5703;BME280;2876;51.738;10.050;2022-11-15T00:38:33;98890.63;;;8.81;100.00
5703;BME280;2876;51.738;10.050;2022-11-15T00:44:35;98895.69;;;9.17;100.00
5703;BME280;2876;51.738;10.050;2022-11-15T00:50:38;98888.53;;;9.24;100.00
5703;BME280;2876;51.738;10.050;2022-11-15T00:56:40;98895.63;;;9.58;100.00
5703;BME280;2876;51.738;10.050;2022-11-15T01:02:41;98886.13;;;9.62;99.04
5703;BME280;2876;51.738;10.050;2022-11-15T01:08:43;98898.06;;;9.66;99.52
5703;BME280;2876;51.738;10.050;2022-11-15T01:14:45;98889.44;;;9.78;99.28
5703;BME280;2876;51.738;10.050;2022-11-15T01:20:47;98895.44;;;9.86;98.61
5703;BME280;2876;51.738;10.050;2022-11-15T01:26:49;98890.66;;;9.75;98.86
5703;BME280;2876;51.738;10.050;2022-11-15T01:32:51;98879.56;;;9.78;99.20
5703;BME280;2876;51.738;10.050;2022-11-15T01:38:58;98889.03;;;9.94;98.90
5703;BME280;2876;51.738;10.050;2022-11-15T01:45:00;98871.72;;;10.10;98.90
5703;BME280;2876;51.738;10.050;2022-11-15T01:51:07;98851.88;;;10.51;97.28
5703;BME280;2876;51.738;10.050;2022-11-15T01:57:12;98855.78;;;10.48;97.20
5703;BME280;2876;51.738;10.050;2022-11-15T02:03:15;98850.41;;;10.48;97.00
5703;BME280;2876;51.738;10.050;2022-11-15T02:09:18;98847.28;;;10.58;96.46
5703;BME280;2876;51.738;10.050;2022-11-15T02:15:20;98840.50;;;10.55;96.30
5703;BME280;2876;51.738;10.050;2022-11-15T02:40:49;98849.88;;;9.47;96.82
5703;BME280;2876;51.738;10.050;2022-11-15T02:47:10;98819.38;;;9.81;97.11
5703;BME280;2876;51.738;10.050;2022-11-15T02:53:16;98810.16;;;9.63;97.68
5703;BME280;2876;51.738;10.050;2022-11-15T03:12:36;98799.41;;;9.57;97.93
5703;BME280;2876;51.738;10.050;2022-11-15T03:18:52;98796.31;;;9.93;96.64
5703;BME280;2876;51.738;10.050;2022-11-15T03:24:59;98801.47;;;9.81;96.88
5703;BME280;2876;51.738;10.050;2022-11-15T03:31:03;98805.59;;;9.57;96.96
5703;BME280;2876;51.738;10.050;2022-11-15T03:37:38;98812.50;;;8.92;97.15
5703;BME280;2876;51.738;10.050;2022-11-15T03:44:08;98807.22;;;8.51;99.23
5703;BME280;2876;51.738;10.050;2022-11-15T03:50:16;98806.13;;;8.86;98.98
5703;BME280;2876;51.738;10.050;2022-11-15T03:56:18;98803.06;;;9.03;99.66
5703;BME280;2876;51.738;10.050;2022-11-15T04:02:20;98797.38;;;9.32;99.35
5703;BME280;2876;51.738;10.050;2022-11-15T04:08:22;98803.53;;;9.53;99.11
5703;BME280;2876;51.738;10.050;2022-11-15T04:14:24;98798.00;;;9.54;97.74
5703;BME280;2876;51.738;10.050;2022-11-15T04:20:29;98786.88;;;9.51;96.48
5703;BME280;2876;51.738;10.050;2022-11-15T04:26:49;98777.59;;;9.33;97.37
5703;BME280;2876;51.738;10.050;2022-11-15T04:32:51;98769.38;;;9.28;97.85
5703;BME280;2876;51.738;10.050;2022-11-15T04:38:53;98777.19;;;9.30;98.08
5703;BME280;2876;51.738;10.050;2022-11-15T04:44:55;98776.56;;;9.41;97.40
5703;BME280;2876;51.738;10.050;2022-11-15T04:50:58;98755.75;;;9.03;97.56
5703;BME280;2876;51.738;10.050;2022-11-15T04:57:00;98746.50;;;9.06;97.99
5703;BME280;2876;51.738;10.050;2022-11-15T05:03:02;98750.59;;;9.02;97.65
5703;BME280;2876;51.738;10.050;2022-11-15T05:09:22;98747.66;;;8.70;97.68
5703;BME280;2876;51.738;10.050;2022-11-15T05:15:24;98752.91;;;8.44;98.71
5703;BME280;2876;51.738;10.050;2022-11-15T05:21:26;98752.75;;;8.52;98.95
5703;BME280;2876;51.738;10.050;2022-11-15T05:27:29;98757.97;;;8.25;100.00
5703;BME280;2876;51.738;10.050;2022-11-15T05:33:32;98755.44;;;8.17;100.00
5703;BME280;2876;51.738;10.050;2022-11-15T05:39:34;98762.34;;;8.39;100.00
5703;BME280;2876;51.738;10.050;2022-11-15T05:45:36;98767.84;;;8.73;100.00
5703;BME280;2876;51.738;10.050;2022-11-15T05:51:39;98771.72;;;8.63;100.00
5703;BME280;2876;51.738;10.050;2022-11-15T05:57:41;98769.44;;;8.60;100.00
5703;BME280;2876;51.738;10.050;2022-11-15T06:03:43;98773.00;;;8.94;100.00
5703;BME280;2876;51.738;10.050;2022-11-15T06:09:45;98773.06;;;9.21;100.00
5703;BME280;2876;51.738;10.050;2022-11-15T06:15:47;98772.44;;;9.52;100.00
5703;BME280;2876;51.738;10.050;2022-11-15T06:21:49;98775.94;;;9.65;100.00
5703;BME280;2876;51.738;10.050;2022-11-15T06:27:52;98788.09;;;9.68;99.97
5703;BME280;2876;51.738;10.050;2022-11-15T06:33:55;98800.63;;;10.01;98.34
5703;BME280;2876;51.738;10.050;2022-11-15T06:39:56;98801.22;;;10.03;98.18
5703;BME280;2876;51.738;10.050;2022-11-15T06:45:59;98810.53;;;9.87;98.06
5703;BME280;2876;51.738;10.050;2022-11-15T06:52:02;98814.63;;;9.89;97.76
5703;BME280;2876;51.738;10.050;2022-11-15T06:58:04;98810.72;;;10.05;97.27
5703;BME280;2876;51.738;10.050;2022-11-15T07:04:05;98822.28;;;9.99;97.20
5703;BME280;2876;51.738;10.050;2022-11-15T07:10:08;98812.97;;;10.15;96.45
5703;BME280;2876;51.738;10.050;2022-11-15T07:16:10;98807.81;;;10.27;95.53
5703;BME280;2876;51.738;10.050;2022-11-15T07:22:12;98808.81;;;10.19;93.66
5703;BME280;2876;51.738;10.050;2022-11-15T07:28:14;98800.78;;;10.19;92.97
5703;BME280;2876;51.738;10.050;2022-11-15T07:34:16;98805.97;;;10.01;92.98
5703;BME280;2876;51.738;10.050;2022-11-15T07:40:18;98804.75;;;9.90;93.50
5703;BME280;2876;51.738;10.050;2022-11-15T07:46:20;98804.53;;;9.85;93.69
5703;BME280;2876;51.738;10.050;2022-11-15T07:52:22;98808.50;;;9.69;94.38
5703;BME280;2876;51.738;10.050;2022-11-15T07:58:24;98802.28;;;9.62;94.47
5703;BME280;2876;51.738;10.050;2022-11-15T08:04:26;98800.84;;;9.39;94.85
5703;BME280;2876;51.738;10.050;2022-11-15T08:10:28;98797.97;;;9.34;95.04
5703;BME280;2876;51.738;10.050;2022-11-15T08:16:31;98802.50;;;9.27;95.82
5703;BME280;2876;51.738;10.050;2022-11-15T08:22:33;98793.44;;;9.15;96.41
5703;BME280;2876;51.738;10.050;2022-11-15T08:28:35;98792.22;;;9.18;96.34
5703;BME280;2876;51.738;10.050;2022-11-15T08:34:38;98793.59;;;8.94;97.42
5703;BME280;2876;51.738;10.050;2022-11-15T08:40:40;98786.59;;;8.93;97.62
5703;BME280;2876;51.738;10.050;2022-11-15T08:46:43;98783.72;;;9.07;97.84
5703;BME280;2876;51.738;10.050;2022-11-15T08:52:46;98789.28;;;9.06;98.08
5703;BME280;2876;51.738;10.050;2022-11-15T08:58:49;98792.81;;;9.26;97.99
5703;BME280;2876;51.738;10.050;2022-11-15T09:04:51;98782.34;;;9.38;97.61
5703;BME280;2876;51.738;10.050;2022-11-15T09:10:53;98771.63;;;9.58;96.53
5703;BME280;2876;51.738;10.050;2022-11-15T09:16:55;98757.00;;;9.60;96.04
5703;BME280;2876;51.738;10.050;2022-11-15T09:23:02;98746.16;;;10.20;93.46
5703;BME280;2876;51.738;10.050;2022-11-15T09:29:05;98734.22;;;10.16;93.41
5703;BME280;2876;51.738;10.050;2022-11-15T09:35:07;98737.09;;;10.28;93.46
5703;BME280;2876;51.738;10.050;2022-11-15T09:54:28;98739.56;;;11.06;89.82
5703;BME280;2876;51.738;10.050;2022-11-15T10:00:51;98742.22;;;11.06;89.52
5703;BME280;2876;51.738;10.050;2022-11-15T10:13:26;98736.75;;;11.69;88.64
5703;BME280;2876;51.738;10.050;2022-11-15T10:19:56;98734.13;;;12.24;86.75
5703;BME280;2876;51.738;10.050;2022-11-15T10:26:13;98721.19;;;12.81;83.78
5703;BME280;2876;51.738;10.050;2022-11-15T10:32:19;98721.91;;;13.42;82.93
5703;BME280;2876;51.738;10.050;2022-11-15T10:38:21;98716.53;;;13.77;81.15
5703;BME280;2876;51.738;10.050;2022-11-15T10:44:29;98702.59;;;13.57;80.72
5703;BME280;2876;51.738;10.050;2022-11-15T10:50:32;98697.03;;;13.99;78.83
5703;BME280;2876;51.738;10.050;2022-11-15T10:56:34;98691.75;;;14.15;78.17
5703;BME280;2876;51.738;10.050;2022-11-15T11:09:04;98679.41;;;14.31;76.89
5703;BME280;2876;51.738;10.050;2022-11-15T11:15:14;98680.06;;;14.67;76.59
5703;BME280;2876;51.738;10.050;2022-11-15T11:21:46;98675.31;;;15.19;73.60
5703;BME280;2876;51.738;10.050;2022-11-15T11:47:24;98663.03;;;15.12;73.26
5703;BME280;2876;51.738;10.050;2022-11-15T11:53:45;98648.94;;;14.93;73.65
5703;BME280;2876;51.738;10.050;2022-11-15T11:59:58;98655.09;;;15.05;73.57
5703;BME280;2876;51.738;10.050;2022-11-15T12:13:02;98644.03;;;15.07;73.41
5703;BME280;2876;51.738;10.050;2022-11-15T12:19:08;98629.81;;;14.94;75.04
5703;BME280;2876;51.738;10.050;2022-11-15T12:25:33;98628.88;;;15.39;73.64
5703;BME280;2876;51.738;10.050;2022-11-15T12:31:43;98610.72;;;15.57;72.65
5703;BME280;2876;51.738;10.050;2022-11-15T12:37:52;98607.28;;;16.00;70.73
5703;BME280;2876;51.738;10.050;2022-11-15T12:43:58;98601.00;;;15.94;70.70
5703;BME280;2876;51.738;10.050;2022-11-15T12:50:00;98587.78;;;15.76;70.81
5703;BME280;2876;51.738;10.050;2022-11-15T13:08:45;98571.66;;;15.26;72.20
5703;BME280;2876;51.738;10.050;2022-11-15T13:14:51;98562.94;;;15.18;72.85
5703;BME280;2876;51.738;10.050;2022-11-15T13:20:53;98560.34;;;14.90;73.65
5703;BME280;2876;51.738;10.050;2022-11-15T13:27:14;98559.94;;;14.81;73.66
5703;BME280;2876;51.738;10.050;2022-11-15T13:33:36;98539.31;;;14.75;73.46
5703;BME280;2876;51.738;10.050;2022-11-15T13:39:39;98534.72;;;14.76;73.88
5703;BME280;2876;51.738;10.050;2022-11-15T13:45:41;98532.53;;;14.56;74.03
5703;BME280;2876;51.738;10.050;2022-11-15T13:51:53;98530.56;;;14.51;74.33
5703;BME280;2876;51.738;10.050;2022-11-15T13:57:59;98520.78;;;14.33;75.06
5703;BME280;2876;51.738;10.050;2022-11-15T14:04:03;98515.06;;;14.46;74.26
5703;BME280;2876;51.738;10.050;2022-11-15T14:10:26;98506.34;;;14.56;73.88
5703;BME280;2876;51.738;10.050;2022-11-15T14:16:47;98504.41;;;14.52;74.02
5703;BME280;2876;51.738;10.050;2022-11-15T14:22:55;98510.50;;;14.47;74.37
5703;BME280;2876;51.738;10.050;2022-11-15T14:29:06;98507.06;;;14.18;74.67
5703;BME280;2876;51.738;10.050;2022-11-15T14:35:22;98505.22;;;14.07;74.92
5703;BME280;2876;51.738;10.050;2022-11-15T14:41:25;98503.78;;;13.87;75.36
5703;BME280;2876;51.738;10.050;2022-11-15T14:47:28;98499.06;;;13.66;76.32
5703;BME280;2876;51.738;10.050;2022-11-15T14:53:29;98485.75;;;13.59;76.42
5703;BME280;2876;51.738;10.050;2022-11-15T14:59:31;98481.16;;;13.31;77.06
5703;BME280;2876;51.738;10.050;2022-11-15T15:05:42;98481.66;;;13.05;77.81
5703;BME280;2876;51.738;10.050;2022-11-15T15:11:44;98479.41;;;13.13;77.58
5703;BME280;2876;51.738;10.050;2022-11-15T15:17:47;98465.75;;;12.80;78.95
5703;BME280;2876;51.738;10.050;2022-11-15T15:23:50;98454.91;;;12.63;79.74
5703;BME280;2876;51.738;10.050;2022-11-15T15:29:52;98442.84;;;12.77;79.72
5703;BME280;2876;51.738;10.050;2022-11-15T15:35:54;98449.97;;;12.48;80.65
5703;BME280;2876;51.738;10.050;2022-11-15T15:41:56;98442.81;;;12.18;81.59
5703;BME280;2876;51.738;10.050;2022-11-15T15:47:58;98443.16;;;12.10;82.12
5703;BME280;2876;51.738;10.050;2022-11-15T15:54:00;98429.34;;;12.07;82.63
5703;BME280;2876;51.738;10.050;2022-11-15T16:00:04;98427.69;;;11.82;82.63
5703;BME280;2876;51.738;10.050;2022-11-15T16:06:35;98428.66;;;11.39;83.92
5703;BME280;2876;51.738;10.050;2022-11-15T16:12:37;98421.69;;;11.20;84.84
5703;BME280;2876;51.738;10.050;2022-11-15T16:18:39;98409.19;;;10.96;86.45
5703;BME280;2876;51.738;10.050;2022-11-15T16:24:41;98407.41;;;10.89;86.96
5703;BME280;2876;51.738;10.050;2022-11-15T16:30:43;98398.00;;;10.80;87.29
5703;BME280;2876;51.738;10.050;2022-11-15T16:36:45;98405.03;;;11.00;86.43
5703;BME280;2876;51.738;10.050;2022-11-15T16:42:47;98402.34;;;10.81;87.01
5703;BME280;2876;51.738;10.050;2022-11-15T16:48:49;98393.69;;;10.79;87.40
5703;BME280;2876;51.738;10.050;2022-11-15T16:54:51;98394.00;;;10.71;87.58
5703;BME280;2876;51.738;10.050;2022-11-15T17:00:55;98391.97;;;10.85;87.40
5703;BME280;2876;51.738;10.050;2022-11-15T17:06:58;98390.63;;;10.94;88.76
5703;BME280;2876;51.738;10.050;2022-11-15T17:13:00;98381.53;;;11.13;88.30
5703;BME280;2876;51.738;10.050;2022-11-15T17:19:02;98396.13;;;11.17;88.62
5703;BME280;2876;51.738;10.050;2022-11-15T17:25:04;98390.16;;;11.15;88.57
5703;BME280;2876;51.738;10.050;2022-11-15T17:31:11;98389.84;;;11.24;88.39
5703;BME280;2876;51.738;10.050;2022-11-15T17:37:14;98375.13;;;11.45;87.80
5703;BME280;2876;51.738;10.050;2022-11-15T17:43:16;98368.09;;;11.43;88.23
5703;BME280;2876;51.738;10.050;2022-11-15T17:49:18;98369.63;;;11.51;87.41
5703;BME280;2876;51.738;10.050;2022-11-15T17:55:20;98361.50;;;11.69;86.86
5703;BME280;2876;51.738;10.050;2022-11-15T18:01:28;98363.78;;;11.42;87.75
5703;BME280;2876;51.738;10.050;2022-11-15T18:07:31;98358.19;;;11.56;87.52
5703;BME280;2876;51.738;10.050;2022-11-15T18:13:38;98359.94;;;11.50;87.51
5703;BME280;2876;51.738;10.050;2022-11-15T18:19:40;98345.34;;;11.46;87.97
5703;BME280;2876;51.738;10.050;2022-11-15T18:25:42;98342.41;;;11.48;88.49
5703;BME280;2876;51.738;10.050;2022-11-15T18:31:44;98339.38;;;11.44;89.17
5703;BME280;2876;51.738;10.050;2022-11-15T18:37:48;98329.06;;;11.29;90.61
5703;BME280;2876;51.738;10.050;2022-11-15T18:43:50;98320.44;;;11.39;90.71
5703;BME280;2876;51.738;10.050;2022-11-15T18:49:53;98322.75;;;11.35;91.22
5703;BME280;2876;51.738;10.050;2022-11-15T18:56:00;98309.25;;;11.42;91.53
5703;BME280;2876;51.738;10.050;2022-11-15T19:02:03;98304.09;;;11.29;92.33
5703;BME280;2876;51.738;10.050;2022-11-15T19:08:05;98299.03;;;11.21;92.55
5703;BME280;2876;51.738;10.050;2022-11-15T19:14:12;98290.84;;;11.15;93.10
5703;BME280;2876;51.738;10.050;2022-11-15T19:20:14;98275.94;;;11.20;93.24
5703;BME280;2876;51.738;10.050;2022-11-15T19:26:16;98276.63;;;11.15;93.34
5703;BME280;2876;51.738;10.050;2022-11-15T19:32:18;98284.06;;;11.01;93.72
5703;BME280;2876;51.738;10.050;2022-11-15T19:38:22;98267.66;;;11.21;93.41
5703;BME280;2876;51.738;10.050;2022-11-15T19:44:23;98252.53;;;10.97;93.90
5703;BME280;2876;51.738;10.050;2022-11-15T19:50:27;98254.97;;;10.98;93.83
5703;BME280;2876;51.738;10.050;2022-11-15T19:56:29;98255.41;;;11.13;92.85
5703;BME280;2876;51.738;10.050;2022-11-15T20:02:31;98245.00;;;11.05;93.43
5703;BME280;2876;51.738;10.050;2022-11-15T20:08:34;98240.03;;;11.32;91.94
5703;BME280;2876;51.738;10.050;2022-11-15T20:14:37;98243.88;;;11.36;91.40
5703;BME280;2876;51.738;10.050;2022-11-15T20:20:39;98239.63;;;11.17;91.84
5703;BME280;2876;51.738;10.050;2022-11-15T20:26:41;98238.81;;;11.16;91.72
5703;BME280;2876;51.738;10.050;2022-11-15T20:32:44;98237.88;;;10.99;92.10
5703;BME280;2876;51.738;10.050;2022-11-15T20:38:46;98238.63;;;10.88;92.62
5703;BME280;2876;51.738;10.050;2022-11-15T20:44:48;98233.00;;;10.78;92.97
5703;BME280;2876;51.738;10.050;2022-11-15T20:50:50;98224.72;;;10.79;93.06
5703;BME280;2876;51.738;10.050;2022-11-15T20:56:52;98222.97;;;10.85;93.28
5703;BME280;2876;51.738;10.050;2022-11-15T21:02:54;98209.63;;;10.97;92.55
5703;BME280;2876;51.738;10.050;2022-11-15T21:08:56;98211.00;;;10.87;92.80
5703;BME280;2876;51.738;10.050;2022-11-15T21:15:16;98199.22;;;10.88;92.66
5703;BME280;2876;51.738;10.050;2022-11-15T21:21:20;98201.38;;;11.33;89.18
5703;BME280;2876;51.738;10.050;2022-11-15T21:27:22;98192.38;;;11.16;89.82
5703;BME280;2876;51.738;10.050;2022-11-15T21:33:24;98186.19;;;11.04;90.23
5703;BME280;2876;51.738;10.050;2022-11-15T21:39:28;98175.06;;;10.88;90.61
5703;BME280;2876;51.738;10.050;2022-11-15T21:45:30;98166.66;;;10.85;90.99
5703;BME280;2876;51.738;10.050;2022-11-15T21:51:32;98161.91;;;10.87;91.47
5703;BME280;2876;51.738;10.050;2022-11-15T21:57:35;98156.91;;;11.14;90.20
5703;BME280;2876;51.738;10.050;2022-11-15T22:03:36;98148.69;;;10.85;91.12
5703;BME280;2876;51.738;10.050;2022-11-15T22:09:38;98149.25;;;10.76;91.27
5703;BME280;2876;51.738;10.050;2022-11-15T22:15:44;98147.78;;;10.91;90.25
5703;BME280;2876;51.738;10.050;2022-11-15T22:21:46;98137.66;;;11.17;89.73
5703;BME280;2876;51.738;10.050;2022-11-15T22:27:48;98137.78;;;11.22;88.23
5703;BME280;2876;51.738;10.050;2022-11-15T22:33:50;98136.59;;;11.06;89.15
5703;BME280;2876;51.738;10.050;2022-11-15T22:39:52;98123.03;;;10.89;90.01
5703;BME280;2876;51.738;10.050;2022-11-15T22:45:56;98114.22;;;11.24;87.43
5703;BME280;2876;51.738;10.050;2022-11-15T22:51:58;98105.13;;;11.13;87.66
5703;BME280;2876;51.738;10.050;2022-11-15T22:58:00;98101.03;;;10.99;88.24
5703;BME280;2876;51.738;10.050;2022-11-15T23:04:02;98089.94;;;11.07;87.69
5703;BME280;2876;51.738;10.050;2022-11-15T23:10:05;98096.34;;;11.06;87.31
5703;BME280;2876;51.738;10.050;2022-11-15T23:16:26;98089.47;;;11.22;86.09
5703;BME280;2876;51.738;10.050;2022-11-15T23:22:35;98083.06;;;11.11;86.87
5703;BME280;2876;51.738;10.050;2022-11-15T23:28:49;98072.06;;;10.89;87.36
5703;BME280;2876;51.738;10.050;2022-11-15T23:34:51;98066.59;;;10.84;88.10
5703;BME280;2876;51.738;10.050;2022-11-15T23:40:54;98068.56;;;10.65;88.75
5703;BME280;2876;51.738;10.050;2022-11-15T23:46:56;98061.34;;;10.54;89.04
5703;BME280;2876;51.738;10.050;2022-11-15T23:52:58;98057.75;;;10.72;88.34
5703;BME280;2876;51.738;10.050;2022-11-15T23:59:00;98054.22;;;10.72;88.20
